sensor_id;sensor_type;location;lat;lon;timestamp;P1;durP1;ratioP1;P2;durP2;ratioP2
76758;SDS011;65701;45.588;5.186;2023-06-22T00:02:18;9.00;;;9.00;;
76758;SDS011;65701;45.588;5.186;2023-06-22T00:04:43;10.25;;;8.75;;
76758;SDS011;65701;45.588;5.186;2023-06-22T00:07:09;10.25;;;9.25;;
76758;SDS011;65701;45.588;5.186;2023-06-22T00:09:34;11.75;;;10.00;;
76758;SDS011;65701;45.588;5.186;2023-06-22T00:12:00;13.75;;;10.75;;
76758;SDS011;65701;45.588;5.186;2023-06-22T00:14:26;9.75;;;9.75;;
76758;SDS011;65701;45.588;5.186;2023-06-22T00:16:51;10.00;;;8.50;;
76758;SDS011;65701;45.588;5.186;2023-06-22T00:19:22;8.00;;;8.00;;
76758;SDS011;65701;45.588;5.186;2023-06-22T00:21:48;9.75;;;9.50;;
76758;SDS011;65701;45.588;5.186;2023-06-22T00:24:17;8.25;;;7.75;;
76758;SDS011;65701;45.588;5.186;2023-06-22T00:26:43;7.75;;;7.25;;
76758;SDS011;65701;45.588;5.186;2023-06-22T00:29:09;11.75;;;9.25;;
76758;SDS011;65701;45.588;5.186;2023-06-22T00:31:34;9.00;;;9.00;;
76758;SDS011;65701;45.588;5.186;2023-06-22T00:34:00;11.50;;;7.25;;
76758;SDS011;65701;45.588;5.186;2023-06-22T00:36:26;11.00;;;11.00;;
76758;SDS011;65701;45.588;5.186;2023-06-22T00:38:51;10.50;;;10.50;;
76758;SDS011;65701;45.588;5.186;2023-06-22T00:41:17;9.25;;;9.00;;
76758;SDS011;65701;45.588;5.186;2023-06-22T00:43:44;11.25;;;10.25;;
76758;SDS011;65701;45.588;5.186;2023-06-22T00:46:10;11.00;;;10.00;;
76758;SDS011;65701;45.588;5.186;2023-06-22T00:48:37;9.75;;;9.75;;
76758;SDS011;65701;45.588;5.186;2023-06-22T00:51:05;8.75;;;8.75;;
76758;SDS011;65701;45.588;5.186;2023-06-22T00:53:30;10.00;;;9.25;;
76758;SDS011;65701;45.588;5.186;2023-06-22T00:55:59;11.00;;;8.25;;
76758;SDS011;65701;45.588;5.186;2023-06-22T00:58:25;9.75;;;9.75;;
76758;SDS011;65701;45.588;5.186;2023-06-22T01:00:51;11.50;;;8.50;;
76758;SDS011;65701;45.588;5.186;2023-06-22T01:03:16;17.50;;;10.75;;
76758;SDS011;65701;45.588;5.186;2023-06-22T01:05:42;10.75;;;8.75;;
76758;SDS011;65701;45.588;5.186;2023-06-22T01:11:06;7.75;;;5.75;;
76758;SDS011;65701;45.588;5.186;2023-06-22T01:18:48;11.25;;;9.75;;
76758;SDS011;65701;45.588;5.186;2023-06-22T01:21:20;7.50;;;7.00;;
76758;SDS011;65701;45.588;5.186;2023-06-22T01:26:22;13.25;;;11.00;;
76758;SDS011;65701;45.588;5.186;2023-06-22T01:28:56;11.25;;;10.00;;
76758;SDS011;65701;45.588;5.186;2023-06-22T01:31:24;9.50;;;8.75;;
76758;SDS011;65701;45.588;5.186;2023-06-22T01:33:52;10.50;;;10.50;;
76758;SDS011;65701;45.588;5.186;2023-06-22T01:36:21;10.00;;;10.00;;
76758;SDS011;65701;45.588;5.186;2023-06-22T01:38:48;14.50;;;11.75;;
76758;SDS011;65701;45.588;5.186;2023-06-22T01:41:14;9.50;;;6.75;;
76758;SDS011;65701;45.588;5.186;2023-06-22T01:43:41;12.50;;;10.25;;
76758;SDS011;65701;45.588;5.186;2023-06-22T01:46:07;11.00;;;9.00;;
76758;SDS011;65701;45.588;5.186;2023-06-22T01:48:33;13.75;;;12.00;;
76758;SDS011;65701;45.588;5.186;2023-06-22T01:50:59;12.50;;;10.50;;
76758;SDS011;65701;45.588;5.186;2023-06-22T01:53:25;9.00;;;9.00;;
76758;SDS011;65701;45.588;5.186;2023-06-22T01:55:50;10.50;;;7.50;;
76758;SDS011;65701;45.588;5.186;2023-06-22T01:58:16;9.75;;;9.50;;
76758;SDS011;65701;45.588;5.186;2023-06-22T02:00:49;11.50;;;9.25;;
76758;SDS011;65701;45.588;5.186;2023-06-22T02:03:19;12.25;;;12.00;;
76758;SDS011;65701;45.588;5.186;2023-06-22T02:05:49;15.00;;;12.25;;
76758;SDS011;65701;45.588;5.186;2023-06-22T02:08:19;11.00;;;9.75;;
76758;SDS011;65701;45.588;5.186;2023-06-22T02:10:48;14.00;;;9.50;;
76758;SDS011;65701;45.588;5.186;2023-06-22T02:13:15;15.50;;;12.25;;
76758;SDS011;65701;45.588;5.186;2023-06-22T02:15:42;12.00;;;10.75;;
76758;SDS011;65701;45.588;5.186;2023-06-22T02:18:09;15.00;;;11.50;;
76758;SDS011;65701;45.588;5.186;2023-06-22T02:20:37;10.50;;;10.50;;
76758;SDS011;65701;45.588;5.186;2023-06-22T02:23:05;13.00;;;11.25;;
76758;SDS011;65701;45.588;5.186;2023-06-22T02:25:31;10.50;;;8.75;;
76758;SDS011;65701;45.588;5.186;2023-06-22T02:27:57;14.75;;;11.50;;
76758;SDS011;65701;45.588;5.186;2023-06-22T02:30:23;12.25;;;8.25;;
76758;SDS011;65701;45.588;5.186;2023-06-22T02:32:48;10.00;;;10.00;;
76758;SDS011;65701;45.588;5.186;2023-06-22T02:35:14;12.50;;;11.50;;
76758;SDS011;65701;45.588;5.186;2023-06-22T02:37:39;14.75;;;11.75;;
76758;SDS011;65701;45.588;5.186;2023-06-22T02:40:08;11.00;;;11.00;;
76758;SDS011;65701;45.588;5.186;2023-06-22T02:42:34;10.00;;;10.00;;
76758;SDS011;65701;45.588;5.186;2023-06-22T02:45:00;11.50;;;8.50;;
76758;SDS011;65701;45.588;5.186;2023-06-22T02:47:26;17.00;;;14.75;;
76758;SDS011;65701;45.588;5.186;2023-06-22T02:49:52;17.25;;;12.00;;
76758;SDS011;65701;45.588;5.186;2023-06-22T02:52:18;14.25;;;13.00;;
76758;SDS011;65701;45.588;5.186;2023-06-22T02:54:44;19.75;;;16.25;;
76758;SDS011;65701;45.588;5.186;2023-06-22T02:57:12;15.25;;;12.75;;
76758;SDS011;65701;45.588;5.186;2023-06-22T02:59:41;16.00;;;13.50;;
76758;SDS011;65701;45.588;5.186;2023-06-22T03:02:07;16.75;;;15.25;;
76758;SDS011;65701;45.588;5.186;2023-06-22T03:04:34;15.50;;;10.75;;
76758;SDS011;65701;45.588;5.186;2023-06-22T03:07:00;19.00;;;16.25;;
76758;SDS011;65701;45.588;5.186;2023-06-22T03:09:26;14.50;;;13.25;;
76758;SDS011;65701;45.588;5.186;2023-06-22T03:11:53;19.50;;;17.75;;
76758;SDS011;65701;45.588;5.186;2023-06-22T03:14:19;17.25;;;13.00;;
76758;SDS011;65701;45.588;5.186;2023-06-22T03:16:45;19.25;;;14.75;;
76758;SDS011;65701;45.588;5.186;2023-06-22T03:19:10;16.75;;;15.00;;
76758;SDS011;65701;45.588;5.186;2023-06-22T03:21:36;19.50;;;14.75;;
76758;SDS011;65701;45.588;5.186;2023-06-22T03:24:06;19.75;;;17.25;;
76758;SDS011;65701;45.588;5.186;2023-06-22T03:26:32;17.25;;;16.00;;
76758;SDS011;65701;45.588;5.186;2023-06-22T03:28:58;15.75;;;14.75;;
76758;SDS011;65701;45.588;5.186;2023-06-22T03:31:23;18.25;;;16.00;;
76758;SDS011;65701;45.588;5.186;2023-06-22T03:33:49;19.25;;;15.50;;
76758;SDS011;65701;45.588;5.186;2023-06-22T03:36:16;22.75;;;18.25;;
76758;SDS011;65701;45.588;5.186;2023-06-22T03:38:45;17.50;;;15.00;;
76758;SDS011;65701;45.588;5.186;2023-06-22T03:41:12;18.25;;;15.50;;
76758;SDS011;65701;45.588;5.186;2023-06-22T03:43:37;18.75;;;14.00;;
76758;SDS011;65701;45.588;5.186;2023-06-22T03:46:03;17.50;;;17.50;;
76758;SDS011;65701;45.588;5.186;2023-06-22T03:48:28;20.75;;;19.50;;
76758;SDS011;65701;45.588;5.186;2023-06-22T03:50:54;17.00;;;16.50;;
76758;SDS011;65701;45.588;5.186;2023-06-22T03:53:19;18.75;;;18.00;;
76758;SDS011;65701;45.588;5.186;2023-06-22T03:55:48;18.75;;;17.25;;
76758;SDS011;65701;45.588;5.186;2023-06-22T03:58:15;19.75;;;16.50;;
76758;SDS011;65701;45.588;5.186;2023-06-22T04:00:44;20.50;;;14.75;;
76758;SDS011;65701;45.588;5.186;2023-06-22T04:03:11;17.75;;;16.25;;
76758;SDS011;65701;45.588;5.186;2023-06-22T04:05:38;19.00;;;17.00;;
76758;SDS011;65701;45.588;5.186;2023-06-22T04:08:04;21.25;;;17.25;;
76758;SDS011;65701;45.588;5.186;2023-06-22T04:10:30;15.75;;;15.25;;
76758;SDS011;65701;45.588;5.186;2023-06-22T04:12:55;19.25;;;17.25;;
76758;SDS011;65701;45.588;5.186;2023-06-22T04:15:21;18.50;;;16.50;;
76758;SDS011;65701;45.588;5.186;2023-06-22T04:17:47;18.75;;;16.00;;
76758;SDS011;65701;45.588;5.186;2023-06-22T04:20:13;20.00;;;17.50;;
76758;SDS011;65701;45.588;5.186;2023-06-22T04:22:38;14.75;;;12.75;;
76758;SDS011;65701;45.588;5.186;2023-06-22T04:25:05;19.50;;;15.50;;
76758;SDS011;65701;45.588;5.186;2023-06-22T04:27:32;15.50;;;15.00;;
76758;SDS011;65701;45.588;5.186;2023-06-22T04:30:04;18.25;;;15.75;;
76758;SDS011;65701;45.588;5.186;2023-06-22T04:32:32;15.50;;;15.25;;
76758;SDS011;65701;45.588;5.186;2023-06-22T04:34:57;20.50;;;16.75;;
76758;SDS011;65701;45.588;5.186;2023-06-22T04:37:25;15.75;;;15.75;;
76758;SDS011;65701;45.588;5.186;2023-06-22T04:39:51;14.50;;;14.50;;
76758;SDS011;65701;45.588;5.186;2023-06-22T04:42:17;22.00;;;18.75;;
76758;SDS011;65701;45.588;5.186;2023-06-22T04:44:42;19.75;;;14.00;;
76758;SDS011;65701;45.588;5.186;2023-06-22T04:47:08;14.25;;;14.25;;
76758;SDS011;65701;45.588;5.186;2023-06-22T04:49:34;18.75;;;17.75;;
76758;SDS011;65701;45.588;5.186;2023-06-22T04:52:08;18.00;;;15.25;;
76758;SDS011;65701;45.588;5.186;2023-06-22T04:54:35;13.75;;;13.75;;
76758;SDS011;65701;45.588;5.186;2023-06-22T04:57:03;16.75;;;14.25;;
76758;SDS011;65701;45.588;5.186;2023-06-22T04:59:35;18.00;;;13.75;;
76758;SDS011;65701;45.588;5.186;2023-06-22T05:02:04;14.25;;;13.25;;
76758;SDS011;65701;45.588;5.186;2023-06-22T05:04:31;16.25;;;14.50;;
76758;SDS011;65701;45.588;5.186;2023-06-22T05:06:57;18.25;;;15.25;;
76758;SDS011;65701;45.588;5.186;2023-06-22T05:09:23;12.25;;;12.25;;
76758;SDS011;65701;45.588;5.186;2023-06-22T05:11:52;16.25;;;13.25;;
76758;SDS011;65701;45.588;5.186;2023-06-22T05:14:18;16.00;;;13.00;;
76758;SDS011;65701;45.588;5.186;2023-06-22T05:16:44;16.25;;;15.00;;
76758;SDS011;65701;45.588;5.186;2023-06-22T05:19:12;12.00;;;12.00;;
76758;SDS011;65701;45.588;5.186;2023-06-22T05:21:38;16.50;;;14.25;;
76758;SDS011;65701;45.588;5.186;2023-06-22T05:24:04;15.25;;;13.50;;
76758;SDS011;65701;45.588;5.186;2023-06-22T05:26:30;14.75;;;13.00;;
76758;SDS011;65701;45.588;5.186;2023-06-22T05:28:57;14.00;;;13.50;;
76758;SDS011;65701;45.588;5.186;2023-06-22T05:31:22;13.25;;;13.25;;
76758;SDS011;65701;45.588;5.186;2023-06-22T05:33:49;14.50;;;12.00;;
76758;SDS011;65701;45.588;5.186;2023-06-22T05:36:16;16.50;;;16.25;;
76758;SDS011;65701;45.588;5.186;2023-06-22T05:38:44;14.50;;;14.50;;
76758;SDS011;65701;45.588;5.186;2023-06-22T05:41:11;22.00;;;18.00;;
76758;SDS011;65701;45.588;5.186;2023-06-22T05:43:36;15.50;;;15.25;;
76758;SDS011;65701;45.588;5.186;2023-06-22T05:46:02;14.25;;;12.75;;
76758;SDS011;65701;45.588;5.186;2023-06-22T05:48:29;18.50;;;16.25;;
76758;SDS011;65701;45.588;5.186;2023-06-22T05:50:55;3.00;;;1.00;;
76758;SDS011;65701;45.588;5.186;2023-06-22T05:53:21;16.00;;;12.00;;
76758;SDS011;65701;45.588;5.186;2023-06-22T05:55:46;17.25;;;16.25;;
76758;SDS011;65701;45.588;5.186;2023-06-22T05:58:12;11.50;;;11.00;;
76758;SDS011;65701;45.588;5.186;2023-06-22T06:00:38;14.25;;;13.00;;
76758;SDS011;65701;45.588;5.186;2023-06-22T06:03:05;13.50;;;13.25;;
76758;SDS011;65701;45.588;5.186;2023-06-22T06:05:32;14.50;;;14.25;;
76758;SDS011;65701;45.588;5.186;2023-06-22T06:07:58;14.25;;;11.75;;
76758;SDS011;65701;45.588;5.186;2023-06-22T06:10:25;16.25;;;12.50;;
76758;SDS011;65701;45.588;5.186;2023-06-22T06:12:50;10.75;;;10.75;;
76758;SDS011;65701;45.588;5.186;2023-06-22T06:15:16;14.50;;;12.25;;
76758;SDS011;65701;45.588;5.186;2023-06-22T06:17:47;19.50;;;15.25;;
76758;SDS011;65701;45.588;5.186;2023-06-22T06:20:15;15.75;;;11.75;;
76758;SDS011;65701;45.588;5.186;2023-06-22T06:22:41;15.50;;;15.50;;
76758;SDS011;65701;45.588;5.186;2023-06-22T06:25:08;18.25;;;14.25;;
76758;SDS011;65701;45.588;5.186;2023-06-22T06:27:33;13.50;;;12.50;;
76758;SDS011;65701;45.588;5.186;2023-06-22T06:29:59;17.25;;;14.75;;
76758;SDS011;65701;45.588;5.186;2023-06-22T06:32:24;15.00;;;13.50;;
76758;SDS011;65701;45.588;5.186;2023-06-22T06:34:50;16.50;;;14.75;;
76758;SDS011;65701;45.588;5.186;2023-06-22T06:37:16;14.00;;;14.00;;
76758;SDS011;65701;45.588;5.186;2023-06-22T06:39:42;14.25;;;12.75;;
76758;SDS011;65701;45.588;5.186;2023-06-22T06:42:07;16.25;;;13.25;;
76758;SDS011;65701;45.588;5.186;2023-06-22T06:44:33;20.25;;;14.00;;
76758;SDS011;65701;45.588;5.186;2023-06-22T06:46:58;14.25;;;13.00;;
76758;SDS011;65701;45.588;5.186;2023-06-22T06:49:24;15.75;;;15.75;;
76758;SDS011;65701;45.588;5.186;2023-06-22T06:51:50;20.00;;;15.00;;
76758;SDS011;65701;45.588;5.186;2023-06-22T06:54:15;19.00;;;16.75;;
76758;SDS011;65701;45.588;5.186;2023-06-22T06:56:44;15.25;;;14.25;;
76758;SDS011;65701;45.588;5.186;2023-06-22T06:59:13;20.50;;;15.75;;
76758;SDS011;65701;45.588;5.186;2023-06-22T07:01:39;19.25;;;15.75;;
76758;SDS011;65701;45.588;5.186;2023-06-22T07:04:05;16.75;;;16.50;;
76758;SDS011;65701;45.588;5.186;2023-06-22T07:06:30;18.50;;;15.50;;
76758;SDS011;65701;45.588;5.186;2023-06-22T07:08:58;16.75;;;16.75;;
76758;SDS011;65701;45.588;5.186;2023-06-22T07:11:23;19.00;;;13.50;;
76758;SDS011;65701;45.588;5.186;2023-06-22T07:13:49;11.50;;;11.50;;
76758;SDS011;65701;45.588;5.186;2023-06-22T07:16:14;14.25;;;13.75;;
76758;SDS011;65701;45.588;5.186;2023-06-22T07:18:40;15.25;;;15.25;;
76758;SDS011;65701;45.588;5.186;2023-06-22T07:21:05;16.75;;;14.00;;
76758;SDS011;65701;45.588;5.186;2023-06-22T07:23:33;13.75;;;11.75;;
76758;SDS011;65701;45.588;5.186;2023-06-22T07:25:58;18.00;;;15.00;;
76758;SDS011;65701;45.588;5.186;2023-06-22T07:28:27;13.75;;;12.75;;
76758;SDS011;65701;45.588;5.186;2023-06-22T07:30:56;14.25;;;12.50;;
76758;SDS011;65701;45.588;5.186;2023-06-22T07:33:21;12.25;;;12.25;;
76758;SDS011;65701;45.588;5.186;2023-06-22T07:35:47;14.75;;;13.25;;
76758;SDS011;65701;45.588;5.186;2023-06-22T07:38:13;15.50;;;14.25;;
76758;SDS011;65701;45.588;5.186;2023-06-22T07:40:39;16.50;;;15.50;;
76758;SDS011;65701;45.588;5.186;2023-06-22T07:43:06;13.75;;;13.00;;
76758;SDS011;65701;45.588;5.186;2023-06-22T07:45:32;15.75;;;14.25;;
76758;SDS011;65701;45.588;5.186;2023-06-22T07:48:02;18.50;;;16.00;;
76758;SDS011;65701;45.588;5.186;2023-06-22T07:50:27;15.75;;;15.25;;
76758;SDS011;65701;45.588;5.186;2023-06-22T07:52:53;15.00;;;15.00;;
76758;SDS011;65701;45.588;5.186;2023-06-22T07:55:18;12.75;;;11.50;;
76758;SDS011;65701;45.588;5.186;2023-06-22T07:57:46;10.50;;;6.25;;
76758;SDS011;65701;45.588;5.186;2023-06-22T08:00:14;16.25;;;14.25;;
76758;SDS011;65701;45.588;5.186;2023-06-22T08:02:43;16.25;;;11.00;;
76758;SDS011;65701;45.588;5.186;2023-06-22T08:05:10;13.50;;;12.75;;
76758;SDS011;65701;45.588;5.186;2023-06-22T08:07:37;13.00;;;12.50;;
76758;SDS011;65701;45.588;5.186;2023-06-22T08:10:03;17.50;;;14.25;;
76758;SDS011;65701;45.588;5.186;2023-06-22T08:12:29;15.25;;;12.50;;
76758;SDS011;65701;45.588;5.186;2023-06-22T08:14:56;17.25;;;14.25;;
76758;SDS011;65701;45.588;5.186;2023-06-22T08:17:22;13.25;;;9.75;;
76758;SDS011;65701;45.588;5.186;2023-06-22T08:19:48;12.75;;;12.75;;
76758;SDS011;65701;45.588;5.186;2023-06-22T08:22:15;15.50;;;15.25;;
76758;SDS011;65701;45.588;5.186;2023-06-22T08:24:41;16.75;;;14.25;;
76758;SDS011;65701;45.588;5.186;2023-06-22T08:27:09;15.25;;;13.50;;
76758;SDS011;65701;45.588;5.186;2023-06-22T08:29:36;13.25;;;11.50;;
76758;SDS011;65701;45.588;5.186;2023-06-22T08:32:02;10.75;;;10.25;;
76758;SDS011;65701;45.588;5.186;2023-06-22T08:37:15;15.75;;;15.75;;
76758;SDS011;65701;45.588;5.186;2023-06-22T08:39:41;15.25;;;14.25;;
76758;SDS011;65701;45.588;5.186;2023-06-22T08:42:12;13.25;;;12.25;;
76758;SDS011;65701;45.588;5.186;2023-06-22T08:44:37;13.50;;;10.75;;
76758;SDS011;65701;45.588;5.186;2023-06-22T08:47:03;14.25;;;12.50;;
76758;SDS011;65701;45.588;5.186;2023-06-22T08:49:29;15.50;;;12.75;;
76758;SDS011;65701;45.588;5.186;2023-06-22T08:51:55;15.50;;;12.25;;
76758;SDS011;65701;45.588;5.186;2023-06-22T08:54:22;15.00;;;13.50;;
76758;SDS011;65701;45.588;5.186;2023-06-22T08:56:52;11.75;;;11.00;;
76758;SDS011;65701;45.588;5.186;2023-06-22T08:59:18;10.50;;;10.25;;
76758;SDS011;65701;45.588;5.186;2023-06-22T09:01:44;10.75;;;9.75;;
76758;SDS011;65701;45.588;5.186;2023-06-22T09:04:10;13.00;;;10.50;;
76758;SDS011;65701;45.588;5.186;2023-06-22T09:06:37;14.50;;;12.00;;
76758;SDS011;65701;45.588;5.186;2023-06-22T09:09:06;7.75;;;7.75;;
76758;SDS011;65701;45.588;5.186;2023-06-22T09:11:32;12.50;;;11.75;;
76758;SDS011;65701;45.588;5.186;2023-06-22T09:13:57;10.75;;;10.75;;
76758;SDS011;65701;45.588;5.186;2023-06-22T09:16:23;12.50;;;11.50;;
76758;SDS011;65701;45.588;5.186;2023-06-22T09:18:48;12.50;;;10.50;;
76758;SDS011;65701;45.588;5.186;2023-06-22T09:21:14;15.00;;;11.25;;
76758;SDS011;65701;45.588;5.186;2023-06-22T09:23:40;10.75;;;8.75;;
76758;SDS011;65701;45.588;5.186;2023-06-22T09:26:05;9.75;;;9.50;;
76758;SDS011;65701;45.588;5.186;2023-06-22T09:28:31;15.25;;;12.75;;
76758;SDS011;65701;45.588;5.186;2023-06-22T09:30:58;12.50;;;12.50;;
76758;SDS011;65701;45.588;5.186;2023-06-22T09:33:25;14.00;;;10.75;;
76758;SDS011;65701;45.588;5.186;2023-06-22T09:35:54;12.25;;;12.25;;
76758;SDS011;65701;45.588;5.186;2023-06-22T09:38:19;9.75;;;9.75;;
76758;SDS011;65701;45.588;5.186;2023-06-22T09:40:44;11.25;;;11.25;;
76758;SDS011;65701;45.588;5.186;2023-06-22T09:43:11;12.00;;;10.50;;
76758;SDS011;65701;45.588;5.186;2023-06-22T09:45:37;5.75;;;5.75;;
76758;SDS011;65701;45.588;5.186;2023-06-22T09:48:04;12.50;;;12.50;;
76758;SDS011;65701;45.588;5.186;2023-06-22T09:50:32;11.75;;;11.75;;
76758;SDS011;65701;45.588;5.186;2023-06-22T09:52:58;14.50;;;10.25;;
76758;SDS011;65701;45.588;5.186;2023-06-22T09:55:26;11.50;;;10.25;;
76758;SDS011;65701;45.588;5.186;2023-06-22T09:57:58;11.00;;;11.00;;
76758;SDS011;65701;45.588;5.186;2023-06-22T10:00:28;16.00;;;12.50;;
76758;SDS011;65701;45.588;5.186;2023-06-22T10:02:59;13.50;;;11.50;;
76758;SDS011;65701;45.588;5.186;2023-06-22T10:05:25;12.75;;;9.50;;
76758;SDS011;65701;45.588;5.186;2023-06-22T10:07:52;10.50;;;10.50;;
76758;SDS011;65701;45.588;5.186;2023-06-22T10:10:18;14.50;;;11.25;;
76758;SDS011;65701;45.588;5.186;2023-06-22T10:12:55;8.00;;;8.00;;
76758;SDS011;65701;45.588;5.186;2023-06-22T10:15:22;12.50;;;10.50;;
76758;SDS011;65701;45.588;5.186;2023-06-22T10:17:48;14.25;;;12.00;;
76758;SDS011;65701;45.588;5.186;2023-06-22T10:20:14;9.75;;;9.50;;
76758;SDS011;65701;45.588;5.186;2023-06-22T10:22:43;11.25;;;10.00;;
76758;SDS011;65701;45.588;5.186;2023-06-22T10:25:12;11.00;;;11.00;;
76758;SDS011;65701;45.588;5.186;2023-06-22T10:27:39;13.25;;;10.50;;
76758;SDS011;65701;45.588;5.186;2023-06-22T10:30:14;12.25;;;9.50;;
76758;SDS011;65701;45.588;5.186;2023-06-22T10:32:40;12.50;;;11.75;;
76758;SDS011;65701;45.588;5.186;2023-06-22T10:35:07;13.00;;;12.00;;
76758;SDS011;65701;45.588;5.186;2023-06-22T10:37:33;14.25;;;12.00;;
76758;SDS011;65701;45.588;5.186;2023-06-22T10:39:59;9.25;;;8.75;;
76758;SDS011;65701;45.588;5.186;2023-06-22T10:42:24;12.75;;;11.00;;
76758;SDS011;65701;45.588;5.186;2023-06-22T10:44:50;15.00;;;11.75;;
76758;SDS011;65701;45.588;5.186;2023-06-22T10:47:15;14.50;;;14.50;;
76758;SDS011;65701;45.588;5.186;2023-06-22T10:49:41;9.50;;;7.50;;
76758;SDS011;65701;45.588;5.186;2023-06-22T10:52:07;14.33;;;12.00;;
76758;SDS011;65701;45.588;5.186;2023-06-22T10:54:34;12.50;;;10.75;;
76758;SDS011;65701;45.588;5.186;2023-06-22T10:57:01;14.25;;;12.25;;
76758;SDS011;65701;45.588;5.186;2023-06-22T10:59:28;12.25;;;12.25;;
76758;SDS011;65701;45.588;5.186;2023-06-22T11:01:55;14.25;;;13.00;;
76758;SDS011;65701;45.588;5.186;2023-06-22T11:04:23;15.75;;;14.50;;
76758;SDS011;65701;45.588;5.186;2023-06-22T11:06:49;14.25;;;14.00;;
76758;SDS011;65701;45.588;5.186;2023-06-22T11:09:15;16.50;;;16.50;;
76758;SDS011;65701;45.588;5.186;2023-06-22T11:11:50;12.50;;;11.50;;
76758;SDS011;65701;45.588;5.186;2023-06-22T11:14:27;13.50;;;12.00;;
76758;SDS011;65701;45.588;5.186;2023-06-22T11:16:53;16.25;;;14.00;;
76758;SDS011;65701;45.588;5.186;2023-06-22T11:19:19;14.50;;;13.75;;
76758;SDS011;65701;45.588;5.186;2023-06-22T11:21:46;14.25;;;13.00;;
76758;SDS011;65701;45.588;5.186;2023-06-22T11:24:13;15.25;;;12.75;;
76758;SDS011;65701;45.588;5.186;2023-06-22T11:26:40;15.50;;;14.00;;
76758;SDS011;65701;45.588;5.186;2023-06-22T11:29:07;10.50;;;10.50;;
76758;SDS011;65701;45.588;5.186;2023-06-22T11:31:35;14.75;;;12.50;;
76758;SDS011;65701;45.588;5.186;2023-06-22T11:34:01;15.00;;;15.00;;
76758;SDS011;65701;45.588;5.186;2023-06-22T11:36:27;16.50;;;15.25;;
76758;SDS011;65701;45.588;5.186;2023-06-22T11:38:54;13.25;;;12.25;;
76758;SDS011;65701;45.588;5.186;2023-06-22T11:41:21;16.75;;;15.50;;
76758;SDS011;65701;45.588;5.186;2023-06-22T11:43:48;7.00;;;7.00;;
76758;SDS011;65701;45.588;5.186;2023-06-22T11:46:15;12.25;;;10.25;;
76758;SDS011;65701;45.588;5.186;2023-06-22T11:48:41;8.25;;;7.00;;
76758;SDS011;65701;45.588;5.186;2023-06-22T11:51:06;8.25;;;6.50;;
76758;SDS011;65701;45.588;5.186;2023-06-22T11:53:33;5.75;;;4.00;;
76758;SDS011;65701;45.588;5.186;2023-06-22T11:56:00;5.50;;;5.50;;
76758;SDS011;65701;45.588;5.186;2023-06-22T11:58:27;3.25;;;3.25;;
76758;SDS011;65701;45.588;5.186;2023-06-22T12:00:54;4.25;;;4.25;;
76758;SDS011;65701;45.588;5.186;2023-06-22T12:03:21;4.50;;;3.75;;
76758;SDS011;65701;45.588;5.186;2023-06-22T12:05:46;3.00;;;3.00;;
76758;SDS011;65701;45.588;5.186;2023-06-22T12:08:12;4.00;;;4.00;;
76758;SDS011;65701;45.588;5.186;2023-06-22T12:10:38;5.00;;;4.25;;
76758;SDS011;65701;45.588;5.186;2023-06-22T12:13:04;5.00;;;5.00;;
76758;SDS011;65701;45.588;5.186;2023-06-22T12:15:29;4.00;;;4.00;;
76758;SDS011;65701;45.588;5.186;2023-06-22T12:17:55;3.00;;;3.00;;
76758;SDS011;65701;45.588;5.186;2023-06-22T12:20:20;4.25;;;4.00;;
76758;SDS011;65701;45.588;5.186;2023-06-22T12:22:46;5.00;;;3.00;;
76758;SDS011;65701;45.588;5.186;2023-06-22T12:25:12;4.00;;;3.75;;
76758;SDS011;65701;45.588;5.186;2023-06-22T12:27:38;5.50;;;4.25;;
76758;SDS011;65701;45.588;5.186;2023-06-22T12:30:03;5.00;;;5.00;;
76758;SDS011;65701;45.588;5.186;2023-06-22T12:32:31;4.00;;;3.00;;
76758;SDS011;65701;45.588;5.186;2023-06-22T12:34:56;3.25;;;1.50;;
76758;SDS011;65701;45.588;5.186;2023-06-22T12:37:23;2.25;;;1.25;;
76758;SDS011;65701;45.588;5.186;2023-06-22T12:39:50;4.50;;;4.50;;
76758;SDS011;65701;45.588;5.186;2023-06-22T12:42:17;5.00;;;4.00;;
76758;SDS011;65701;45.588;5.186;2023-06-22T12:48:05;4.50;;;2.00;;
76758;SDS011;65701;45.588;5.186;2023-06-22T12:50:31;3.75;;;3.75;;
76758;SDS011;65701;45.588;5.186;2023-06-22T12:52:58;4.00;;;3.00;;
76758;SDS011;65701;45.588;5.186;2023-06-22T12:55:28;3.50;;;2.00;;
76758;SDS011;65701;45.588;5.186;2023-06-22T12:57:53;3.25;;;3.25;;
76758;SDS011;65701;45.588;5.186;2023-06-22T13:06:40;5.00;;;4.00;;
76758;SDS011;65701;45.588;5.186;2023-06-22T13:09:09;5.75;;;5.00;;
76758;SDS011;65701;45.588;5.186;2023-06-22T13:11:35;3.75;;;3.50;;
76758;SDS011;65701;45.588;5.186;2023-06-22T13:14:01;6.75;;;3.75;;
76758;SDS011;65701;45.588;5.186;2023-06-22T13:20:09;4.75;;;3.25;;
76758;SDS011;65701;45.588;5.186;2023-06-22T13:25:36;9.25;;;7.50;;
76758;SDS011;65701;45.588;5.186;2023-06-22T13:31:39;7.25;;;4.50;;
76758;SDS011;65701;45.588;5.186;2023-06-22T13:51:09;2.75;;;2.75;;
76758;SDS011;65701;45.588;5.186;2023-06-22T13:53:34;2.50;;;2.50;;
76758;SDS011;65701;45.588;5.186;2023-06-22T13:56:01;2.00;;;2.00;;
76758;SDS011;65701;45.588;5.186;2023-06-22T13:58:27;1.00;;;1.00;;
76758;SDS011;65701;45.588;5.186;2023-06-22T14:00:55;3.00;;;2.00;;
76758;SDS011;65701;45.588;5.186;2023-06-22T14:03:21;4.00;;;2.75;;
76758;SDS011;65701;45.588;5.186;2023-06-22T14:05:47;1.00;;;1.00;;
76758;SDS011;65701;45.588;5.186;2023-06-22T14:11:34;2.50;;;1.00;;
76758;SDS011;65701;45.588;5.186;2023-06-22T14:14:00;3.00;;;0.75;;
76758;SDS011;65701;45.588;5.186;2023-06-22T14:16:25;2.00;;;2.00;;
76758;SDS011;65701;45.588;5.186;2023-06-22T14:18:51;1.50;;;1.50;;
76758;SDS011;65701;45.588;5.186;2023-06-22T14:21:17;2.00;;;2.00;;
76758;SDS011;65701;45.588;5.186;2023-06-22T14:23:43;0.50;;;0.50;;
76758;SDS011;65701;45.588;5.186;2023-06-22T14:26:22;1.25;;;1.00;;
76758;SDS011;65701;45.588;5.186;2023-06-22T14:28:48;0.00;;;0.00;;
76758;SDS011;65701;45.588;5.186;2023-06-22T14:31:15;1.50;;;1.00;;
76758;SDS011;65701;45.588;5.186;2023-06-22T14:33:45;0.75;;;0.25;;
76758;SDS011;65701;45.588;5.186;2023-06-22T14:36:13;1.25;;;1.25;;
76758;SDS011;65701;45.588;5.186;2023-06-22T14:38:39;1.00;;;1.00;;
76758;SDS011;65701;45.588;5.186;2023-06-22T14:41:04;2.75;;;2.00;;
76758;SDS011;65701;45.588;5.186;2023-06-22T14:43:30;3.75;;;1.00;;
76758;SDS011;65701;45.588;5.186;2023-06-22T14:45:56;0.50;;;0.50;;
76758;SDS011;65701;45.588;5.186;2023-06-22T14:48:21;1.25;;;1.00;;
76758;SDS011;65701;45.588;5.186;2023-06-22T14:50:47;2.75;;;1.25;;
76758;SDS011;65701;45.588;5.186;2023-06-22T14:53:12;1.25;;;1.25;;
76758;SDS011;65701;45.588;5.186;2023-06-22T14:55:39;2.00;;;2.00;;
76758;SDS011;65701;45.588;5.186;2023-06-22T14:58:05;2.00;;;2.00;;
76758;SDS011;65701;45.588;5.186;2023-06-22T15:00:31;2.00;;;2.00;;
76758;SDS011;65701;45.588;5.186;2023-06-22T15:02:57;1.00;;;1.00;;
76758;SDS011;65701;45.588;5.186;2023-06-22T15:05:24;2.00;;;1.25;;
76758;SDS011;65701;45.588;5.186;2023-06-22T15:07:51;3.00;;;1.50;;
76758;SDS011;65701;45.588;5.186;2023-06-22T15:10:17;1.50;;;1.25;;
76758;SDS011;65701;45.588;5.186;2023-06-22T15:12:42;3.00;;;3.00;;
76758;SDS011;65701;45.588;5.186;2023-06-22T15:15:08;2.00;;;1.50;;
76758;SDS011;65701;45.588;5.186;2023-06-22T15:17:34;4.00;;;2.00;;
76758;SDS011;65701;45.588;5.186;2023-06-22T15:20:00;2.25;;;2.25;;